Webcam Rollhalt 06

Webcam Rollhalt 24

 

Flugplatz - Wetter - Augsburg

[Quelle: ADDS]
METAR
EDMA 171150Z 09007KT 3000 BR OVC005 05/04 Q1002 =
EDMA 171100Z 1712/1721 08005KT 6000 BKN005 OVC007 PROB30 TEMPO 1712/1715 4000 DZ BR BKN004 BECMG 1715/1717 4000 BR BKN011 BECMG 1717/1719 25005KT
TAF
EDMA 171100Z 1712/1721 08005KT 6000 BKN005 OVC007 PROB30 TEMPO 1712/1715 4000 DZ BR BKN004 BECMG 1715/1717 4000 BR BKN011 BECMG 1717/1719 25005KT =
SR / SS: 06:27 / 15:37 UTC (Augsburg 2019-11-17)

Flugplatz - Wetter - Laupheim

[Quelle: ADDS]
METAR
ETHL 171120Z 04007KT 1800 BR OVC003 03/03 Q1002 YLO =
TAF
SR / SS: 06:31 / 15:42 UTC (Laupheim 2019-11-17)

Flugplatz - Wetter - Memmingen

[Quelle: ADDS]
METAR
EDJA 171150Z 03006KT 1100 0900NE R06/1600D FG SCT002 OVC005 03/03 Q1001 =
EDJA 171100Z 1712/1721 05010KT 0400 FG OVC002 TEMPO 1712/1714 0300 DZ FG OVC001 BECMG 1714/1716 26005KT 2000 -DZ OVC005
TAF
EDJA 171100Z 1712/1721 05010KT 0400 FG OVC002 TEMPO 1712/1714 0300 DZ FG OVC001 BECMG 1714/1716 26005KT 2000 -DZ OVC005 =
SR / SS: 06:27 / 15:41 UTC (Memmingen 2019-11-17)

Flugplatz - Wetter - Neuburg/Donau

[Quelle: ADDS]
METAR
ETSN 171149Z 07008KT 9999 BKN006 07/06 Q1002 YLO =
ETSN 171100Z 1712/1721 05005KT 9999 NSW BKN008 BECMG 1714/1716 24005KT 9999 NSW BKN012 BY ETGL
TAF
ETSN 171100Z 1712/1721 05005KT 9999 NSW BKN008 BECMG 1714/1716 24005KT 9999 NSW BKN012 BY ETGL =
SR / SS: 06:25 / 15:35 UTC (Neuburg 2019-11-17)

Flugplatz - Wetter - Stuttgart

[Quelle: ADDS]
METAR
EDDS 171150Z 32006KT 3500 BR OVC003 03/02 Q1003 BECMG 5000 =
EDDS 171100Z 1712/1812 36006KT 5000 BR OVC003 TEMPO 1712/1717 1500 -DZ BECMG 1715/1717 24005KT BECMG 1717/1719 BKN006 BECMG 1719/1721 SCT015 BECMG 1811/1812 21010KT
TAF
EDDS 171100Z 1712/1812 36006KT 5000 BR OVC003 TEMPO 1712/1717 1500 -DZ BECMG 1715/1717 24005KT BECMG 1717/1719 BKN006 BECMG 1719/1721 SCT015 BECMG 1811/1812 21010KT =
SR / SS: 06:33 / 15:43 UTC (Stuttgart 2019-11-17)

Flugplatz - Wetter - Niederstetten

[Quelle: ADDS]
METAR
ETHN 171204Z 01008KT 0600 FG VV000 04/04 Q1003 RED =
TAF
SR / SS: 06:34 / 15:38 UTC (Niederstetten 2019-11-17)